sensor_id;sensor_type;location;lat;lon;timestamp;P1;durP1;ratioP1;P2;durP2;ratioP2
17038;SDS011;8636;55.750;13.202;2023-05-13T08:13:54;5.40;;;2.70;;
17038;SDS011;8636;55.750;13.202;2023-05-13T08:16:35;3.60;;;2.85;;
17038;SDS011;8636;55.750;13.202;2023-05-13T08:19:09;4.18;;;2.40;;
17038;SDS011;8636;55.750;13.202;2023-05-13T08:21:37;7.20;;;2.72;;
17038;SDS011;8636;55.750;13.202;2023-05-13T08:24:11;8.18;;;2.90;;
17038;SDS011;8636;55.750;13.202;2023-05-13T08:26:39;5.60;;;3.30;;
17038;SDS011;8636;55.750;13.202;2023-05-13T08:29:15;5.32;;;3.15;;
17038;SDS011;8636;55.750;13.202;2023-05-13T09:39:51;3.53;;;2.60;;
17038;SDS011;8636;55.750;13.202;2023-05-13T09:42:34;4.13;;;2.40;;
17038;SDS011;8636;55.750;13.202;2023-05-13T09:45:08;5.78;;;2.53;;
17038;SDS011;8636;55.750;13.202;2023-05-13T09:47:49;4.78;;;2.60;;
17038;SDS011;8636;55.750;13.202;2023-05-13T09:50:18;3.05;;;2.40;;
17038;SDS011;8636;55.750;13.202;2023-05-13T09:52:54;2.53;;;2.30;;
17038;SDS011;8636;55.750;13.202;2023-05-13T09:55:24;3.65;;;2.30;;
17038;SDS011;8636;55.750;13.202;2023-05-13T09:57:58;3.30;;;2.70;;
17038;SDS011;8636;55.750;13.202;2023-05-13T10:00:26;4.57;;;2.85;;
17038;SDS011;8636;55.750;13.202;2023-05-13T10:02:58;4.47;;;2.85;;
17038;SDS011;8636;55.750;13.202;2023-05-13T10:05:34;4.57;;;2.53;;
17038;SDS011;8636;55.750;13.202;2023-05-13T10:08:02;2.85;;;2.65;;
17038;SDS011;8636;55.750;13.202;2023-05-13T10:10:40;3.55;;;2.60;;
17038;SDS011;8636;55.750;13.202;2023-05-13T10:13:10;2.63;;;2.42;;
17038;SDS011;8636;55.750;13.202;2023-05-13T10:15:47;3.78;;;2.45;;
17038;SDS011;8636;55.750;13.202;2023-05-13T10:18:16;3.50;;;2.38;;
17038;SDS011;8636;55.750;13.202;2023-05-13T10:20:52;3.47;;;2.40;;
17038;SDS011;8636;55.750;13.202;2023-05-13T10:23:21;4.13;;;2.60;;
17038;SDS011;8636;55.750;13.202;2023-05-13T10:25:52;3.22;;;2.60;;
17038;SDS011;8636;55.750;13.202;2023-05-13T10:28:27;4.00;;;2.60;;
17038;SDS011;8636;55.750;13.202;2023-05-13T10:30:55;4.10;;;2.55;;
17038;SDS011;8636;55.750;13.202;2023-05-13T10:33:30;3.65;;;2.50;;
17038;SDS011;8636;55.750;13.202;2023-05-13T10:36:00;3.30;;;2.30;;
17038;SDS011;8636;55.750;13.202;2023-05-13T10:38:55;4.07;;;2.25;;
17038;SDS011;8636;55.750;13.202;2023-05-13T10:45:09;3.65;;;2.42;;
17038;SDS011;8636;55.750;13.202;2023-05-13T10:47:37;2.67;;;2.40;;
17038;SDS011;8636;55.750;13.202;2023-05-13T10:50:21;4.45;;;2.50;;
17038;SDS011;8636;55.750;13.202;2023-05-13T10:52:53;5.15;;;2.63;;
17038;SDS011;8636;55.750;13.202;2023-05-13T10:55:29;2.95;;;2.35;;
17038;SDS011;8636;55.750;13.202;2023-05-13T10:58:10;3.42;;;2.40;;
17038;SDS011;8636;55.750;13.202;2023-05-13T11:00:46;2.90;;;2.60;;
17038;SDS011;8636;55.750;13.202;2023-05-13T11:03:26;4.72;;;2.38;;
17038;SDS011;8636;55.750;13.202;2023-05-13T11:06:13;4.03;;;2.20;;
17038;SDS011;8636;55.750;13.202;2023-05-13T11:08:43;4.00;;;2.53;;
17038;SDS011;8636;55.750;13.202;2023-05-13T11:11:22;3.17;;;2.72;;
17038;SDS011;8636;55.750;13.202;2023-05-13T11:14:13;2.58;;;2.33;;
17038;SDS011;8636;55.750;13.202;2023-05-13T11:16:51;3.05;;;2.50;;
17038;SDS011;8636;55.750;13.202;2023-05-13T11:19:20;3.42;;;2.17;;
17038;SDS011;8636;55.750;13.202;2023-05-13T11:21:56;5.55;;;2.75;;
17038;SDS011;8636;55.750;13.202;2023-05-13T11:24:25;3.97;;;2.67;;
17038;SDS011;8636;55.750;13.202;2023-05-13T11:26:53;4.57;;;2.70;;
17038;SDS011;8636;55.750;13.202;2023-05-13T11:29:31;3.47;;;2.67;;
17038;SDS011;8636;55.750;13.202;2023-05-13T11:32:01;6.32;;;2.50;;
17038;SDS011;8636;55.750;13.202;2023-05-13T11:34:36;3.58;;;2.45;;
17038;SDS011;8636;55.750;13.202;2023-05-13T11:37:06;3.88;;;2.35;;
17038;SDS011;8636;55.750;13.202;2023-05-13T11:39:41;6.22;;;3.00;;
17038;SDS011;8636;55.750;13.202;2023-05-13T11:42:22;4.35;;;2.42;;
17038;SDS011;8636;55.750;13.202;2023-05-13T11:44:59;6.03;;;2.28;;
17038;SDS011;8636;55.750;13.202;2023-05-13T11:47:26;2.78;;;2.25;;
17038;SDS011;8636;55.750;13.202;2023-05-13T11:49:54;3.30;;;2.53;;
17038;SDS011;8636;55.750;13.202;2023-05-13T11:52:30;3.63;;;2.55;;
17038;SDS011;8636;55.750;13.202;2023-05-13T11:54:58;2.38;;;2.10;;
17038;SDS011;8636;55.750;13.202;2023-05-13T11:57:33;3.15;;;2.40;;
17038;SDS011;8636;55.750;13.202;2023-05-13T12:00:04;4.95;;;2.50;;
17038;SDS011;8636;55.750;13.202;2023-05-13T12:02:40;3.50;;;2.45;;
17038;SDS011;8636;55.750;13.202;2023-05-13T12:05:11;4.22;;;2.45;;
17038;SDS011;8636;55.750;13.202;2023-05-13T12:07:39;2.05;;;1.85;;
17038;SDS011;8636;55.750;13.202;2023-05-13T12:10:13;3.70;;;2.50;;
17038;SDS011;8636;55.750;13.202;2023-05-13T12:12:43;8.18;;;2.67;;
17038;SDS011;8636;55.750;13.202;2023-05-13T12:15:20;4.72;;;2.47;;
17038;SDS011;8636;55.750;13.202;2023-05-13T12:17:49;3.08;;;2.38;;
17038;SDS011;8636;55.750;13.202;2023-05-13T12:20:25;3.35;;;2.45;;
17038;SDS011;8636;55.750;13.202;2023-05-13T12:22:53;3.65;;;2.25;;
17038;SDS011;8636;55.750;13.202;2023-05-13T12:25:38;4.45;;;2.30;;
17038;SDS011;8636;55.750;13.202;2023-05-13T12:28:08;4.82;;;2.53;;
17038;SDS011;8636;55.750;13.202;2023-05-13T12:30:49;4.47;;;2.67;;
17038;SDS011;8636;55.750;13.202;2023-05-13T12:33:19;4.22;;;2.35;;
17038;SDS011;8636;55.750;13.202;2023-05-13T12:38:51;3.50;;;2.13;;
17038;SDS011;8636;55.750;13.202;2023-05-13T12:41:41;3.90;;;2.55;;
17038;SDS011;8636;55.750;13.202;2023-05-13T12:44:18;2.95;;;2.22;;
17038;SDS011;8636;55.750;13.202;2023-05-13T12:46:55;2.88;;;2.30;;
17038;SDS011;8636;55.750;13.202;2023-05-13T12:49:24;3.67;;;2.50;;
17038;SDS011;8636;55.750;13.202;2023-05-13T12:51:58;2.97;;;2.22;;
17038;SDS011;8636;55.750;13.202;2023-05-13T12:54:29;6.35;;;2.58;;
17038;SDS011;8636;55.750;13.202;2023-05-13T12:56:57;4.47;;;2.20;;
17038;SDS011;8636;55.750;13.202;2023-05-13T12:59:32;2.72;;;2.50;;
17038;SDS011;8636;55.750;13.202;2023-05-13T13:02:01;3.67;;;2.17;;
17038;SDS011;8636;55.750;13.202;2023-05-13T13:04:36;3.47;;;2.70;;
17038;SDS011;8636;55.750;13.202;2023-05-13T13:07:04;3.28;;;2.30;;
17038;SDS011;8636;55.750;13.202;2023-05-13T13:09:44;2.47;;;2.10;;
17038;SDS011;8636;55.750;13.202;2023-05-13T13:12:12;4.07;;;2.70;;
17038;SDS011;8636;55.750;13.202;2023-05-13T13:14:46;3.03;;;2.33;;
17038;SDS011;8636;55.750;13.202;2023-05-13T13:17:16;2.70;;;2.40;;
17038;SDS011;8636;55.750;13.202;2023-05-13T13:19:43;5.07;;;2.58;;
17038;SDS011;8636;55.750;13.202;2023-05-13T13:22:18;2.50;;;2.30;;
17038;SDS011;8636;55.750;13.202;2023-05-13T13:24:46;4.07;;;2.50;;
17038;SDS011;8636;55.750;13.202;2023-05-13T13:27:20;3.83;;;2.50;;
17038;SDS011;8636;55.750;13.202;2023-05-13T13:29:48;2.85;;;2.20;;
17038;SDS011;8636;55.750;13.202;2023-05-13T13:32:24;3.10;;;2.30;;
17038;SDS011;8636;55.750;13.202;2023-05-13T13:34:52;3.22;;;2.28;;
17038;SDS011;8636;55.750;13.202;2023-05-13T13:37:19;2.22;;;2.03;;
17038;SDS011;8636;55.750;13.202;2023-05-13T13:40:10;2.45;;;2.22;;
17038;SDS011;8636;55.750;13.202;2023-05-13T13:42:38;3.67;;;2.50;;
17038;SDS011;8636;55.750;13.202;2023-05-13T13:45:13;3.10;;;2.40;;
17038;SDS011;8636;55.750;13.202;2023-05-13T13:47:42;3.30;;;2.30;;
17038;SDS011;8636;55.750;13.202;2023-05-13T13:50:17;5.40;;;2.50;;
17038;SDS011;8636;55.750;13.202;2023-05-13T13:52:45;4.47;;;2.30;;
17038;SDS011;8636;55.750;13.202;2023-05-13T13:55:21;2.63;;;2.28;;
17038;SDS011;8636;55.750;13.202;2023-05-13T13:57:49;2.92;;;2.33;;
17038;SDS011;8636;55.750;13.202;2023-05-13T14:00:17;3.55;;;2.00;;
17038;SDS011;8636;55.750;13.202;2023-05-13T14:02:53;4.32;;;2.47;;
17038;SDS011;8636;55.750;13.202;2023-05-13T14:05:21;5.95;;;2.70;;
17038;SDS011;8636;55.750;13.202;2023-05-13T14:07:56;3.33;;;2.42;;
17038;SDS011;8636;55.750;13.202;2023-05-13T14:10:24;2.50;;;2.30;;
17038;SDS011;8636;55.750;13.202;2023-05-13T14:12:58;2.67;;;2.47;;
17038;SDS011;8636;55.750;13.202;2023-05-13T14:15:26;2.95;;;2.10;;
17038;SDS011;8636;55.750;13.202;2023-05-13T14:18:04;4.32;;;2.55;;
17038;SDS011;8636;55.750;13.202;2023-05-13T14:20:32;4.25;;;2.40;;
17038;SDS011;8636;55.750;13.202;2023-05-13T14:23:01;2.53;;;2.28;;
17038;SDS011;8636;55.750;13.202;2023-05-13T14:25:35;3.38;;;2.65;;
17038;SDS011;8636;55.750;13.202;2023-05-13T14:28:03;2.38;;;2.17;;
17038;SDS011;8636;55.750;13.202;2023-05-13T14:30:37;2.60;;;2.40;;
17038;SDS011;8636;55.750;13.202;2023-05-13T14:33:06;3.78;;;2.03;;
17038;SDS011;8636;55.750;13.202;2023-05-13T14:35:41;4.30;;;2.25;;
17038;SDS011;8636;55.750;13.202;2023-05-13T14:38:09;2.55;;;2.20;;
17038;SDS011;8636;55.750;13.202;2023-05-13T14:40:57;2.38;;;2.17;;
17038;SDS011;8636;55.750;13.202;2023-05-13T14:43:25;2.10;;;1.90;;
17038;SDS011;8636;55.750;13.202;2023-05-13T14:45:59;3.63;;;2.00;;
17038;SDS011;8636;55.750;13.202;2023-05-13T14:48:29;3.90;;;2.20;;
17038;SDS011;8636;55.750;13.202;2023-05-13T14:50:56;2.58;;;2.08;;
17038;SDS011;8636;55.750;13.202;2023-05-13T14:53:31;4.55;;;2.15;;
17038;SDS011;8636;55.750;13.202;2023-05-13T14:55:59;2.28;;;2.17;;
17038;SDS011;8636;55.750;13.202;2023-05-13T14:58:33;3.63;;;2.30;;
17038;SDS011;8636;55.750;13.202;2023-05-13T15:01:01;3.42;;;2.33;;
17038;SDS011;8636;55.750;13.202;2023-05-13T15:03:38;6.28;;;2.50;;
17038;SDS011;8636;55.750;13.202;2023-05-13T15:06:06;9.65;;;2.85;;
17038;SDS011;8636;55.750;13.202;2023-05-13T15:08:34;3.35;;;2.53;;
17038;SDS011;8636;55.750;13.202;2023-05-13T15:11:09;3.20;;;2.50;;
17038;SDS011;8636;55.750;13.202;2023-05-13T15:13:37;2.53;;;1.95;;
17038;SDS011;8636;55.750;13.202;2023-05-13T15:16:11;6.65;;;2.42;;
17038;SDS011;8636;55.750;13.202;2023-05-13T15:18:40;3.70;;;2.30;;
17038;SDS011;8636;55.750;13.202;2023-05-13T15:21:16;3.75;;;2.42;;
17038;SDS011;8636;55.750;13.202;2023-05-13T15:23:43;4.20;;;2.40;;
17038;SDS011;8636;55.750;13.202;2023-05-13T15:26:18;4.03;;;2.22;;
17038;SDS011;8636;55.750;13.202;2023-05-13T15:28:47;2.88;;;2.25;;
17038;SDS011;8636;55.750;13.202;2023-05-13T15:31:15;2.80;;;2.45;;
17038;SDS011;8636;55.750;13.202;2023-05-13T15:33:51;3.03;;;2.38;;
17038;SDS011;8636;55.750;13.202;2023-05-13T15:36:19;2.90;;;2.28;;
17038;SDS011;8636;55.750;13.202;2023-05-13T15:38:53;2.80;;;2.17;;
17038;SDS011;8636;55.750;13.202;2023-05-13T15:41:34;3.47;;;2.28;;
17038;SDS011;8636;55.750;13.202;2023-05-13T15:44:09;2.45;;;2.20;;
17038;SDS011;8636;55.750;13.202;2023-05-13T15:46:37;3.25;;;2.33;;
17038;SDS011;8636;55.750;13.202;2023-05-13T15:49:16;3.25;;;2.20;;
17038;SDS011;8636;55.750;13.202;2023-05-13T15:51:44;4.28;;;2.63;;
17038;SDS011;8636;55.750;13.202;2023-05-13T15:54:18;2.53;;;2.33;;
17038;SDS011;8636;55.750;13.202;2023-05-13T15:56:46;2.58;;;2.35;;
17038;SDS011;8636;55.750;13.202;2023-05-13T15:59:14;3.58;;;2.50;;
17038;SDS011;8636;55.750;13.202;2023-05-13T16:01:49;4.18;;;2.58;;
17038;SDS011;8636;55.750;13.202;2023-05-13T16:04:19;6.95;;;2.75;;
17038;SDS011;8636;55.750;13.202;2023-05-13T16:06:53;4.53;;;2.75;;
17038;SDS011;8636;55.750;13.202;2023-05-13T16:09:21;5.65;;;2.20;;
17038;SDS011;8636;55.750;13.202;2023-05-13T16:11:55;3.38;;;2.75;;
17038;SDS011;8636;55.750;13.202;2023-05-13T16:14:23;5.55;;;2.70;;
17038;SDS011;8636;55.750;13.202;2023-05-13T16:16:57;4.32;;;2.85;;
17038;SDS011;8636;55.750;13.202;2023-05-13T16:19:27;2.70;;;2.50;;
17038;SDS011;8636;55.750;13.202;2023-05-13T16:21:55;4.90;;;2.53;;
17038;SDS011;8636;55.750;13.202;2023-05-13T16:24:29;4.68;;;2.72;;
17038;SDS011;8636;55.750;13.202;2023-05-13T16:26:57;3.38;;;2.58;;
17038;SDS011;8636;55.750;13.202;2023-05-13T16:29:31;4.57;;;2.65;;
17038;SDS011;8636;55.750;13.202;2023-05-13T16:31:59;4.00;;;2.50;;
17038;SDS011;8636;55.750;13.202;2023-05-13T16:34:35;5.28;;;2.53;;
17038;SDS011;8636;55.750;13.202;2023-05-13T16:37:03;3.25;;;2.53;;
17038;SDS011;8636;55.750;13.202;2023-05-13T16:39:31;2.67;;;2.28;;
17038;SDS011;8636;55.750;13.202;2023-05-13T16:42:05;2.38;;;2.20;;
17038;SDS011;8636;55.750;13.202;2023-05-13T16:44:33;3.75;;;2.95;;
17038;SDS011;8636;55.750;13.202;2023-05-13T16:47:07;3.15;;;2.42;;
17038;SDS011;8636;55.750;13.202;2023-05-13T16:49:36;4.63;;;2.55;;
17038;SDS011;8636;55.750;13.202;2023-05-13T16:52:11;3.10;;;2.80;;
17038;SDS011;8636;55.750;13.202;2023-05-13T16:54:39;2.75;;;2.30;;
17038;SDS011;8636;55.750;13.202;2023-05-13T16:57:14;4.25;;;2.60;;
17038;SDS011;8636;55.750;13.202;2023-05-13T16:59:42;3.53;;;2.42;;
17038;SDS011;8636;55.750;13.202;2023-05-13T17:02:10;4.40;;;2.40;;
17038;SDS011;8636;55.750;13.202;2023-05-13T17:04:46;2.88;;;2.42;;
17038;SDS011;8636;55.750;13.202;2023-05-13T17:07:13;3.05;;;2.72;;
17038;SDS011;8636;55.750;13.202;2023-05-13T17:09:48;4.78;;;2.70;;
17038;SDS011;8636;55.750;13.202;2023-05-13T17:12:16;3.28;;;2.45;;
17038;SDS011;8636;55.750;13.202;2023-05-13T17:14:50;3.13;;;2.50;;
17038;SDS011;8636;55.750;13.202;2023-05-13T17:17:18;4.00;;;2.35;;
17038;SDS011;8636;55.750;13.202;2023-05-13T17:19:54;4.90;;;2.83;;
17038;SDS011;8636;55.750;13.202;2023-05-13T17:22:25;4.30;;;2.55;;
17038;SDS011;8636;55.750;13.202;2023-05-13T17:24:59;2.78;;;2.42;;
17038;SDS011;8636;55.750;13.202;2023-05-13T17:27:27;4.43;;;2.75;;
17038;SDS011;8636;55.750;13.202;2023-05-13T17:29:55;3.08;;;2.28;;
17038;SDS011;8636;55.750;13.202;2023-05-13T17:32:30;4.35;;;2.50;;
17038;SDS011;8636;55.750;13.202;2023-05-13T17:35:00;3.55;;;2.50;;
17038;SDS011;8636;55.750;13.202;2023-05-13T17:37:34;5.03;;;2.67;;
17038;SDS011;8636;55.750;13.202;2023-05-13T17:40:02;3.17;;;2.35;;
17038;SDS011;8636;55.750;13.202;2023-05-13T17:42:45;5.65;;;2.67;;
17038;SDS011;8636;55.750;13.202;2023-05-13T17:45:12;4.00;;;2.63;;
17038;SDS011;8636;55.750;13.202;2023-05-13T17:47:47;11.82;;;3.35;;
17038;SDS011;8636;55.750;13.202;2023-05-13T17:50:17;4.13;;;2.80;;
17038;SDS011;8636;55.750;13.202;2023-05-13T17:52:45;6.97;;;3.30;;
17038;SDS011;8636;55.750;13.202;2023-05-13T17:55:19;6.65;;;2.83;;
17038;SDS011;8636;55.750;13.202;2023-05-13T17:57:47;5.78;;;2.67;;
17038;SDS011;8636;55.750;13.202;2023-05-13T18:00:22;8.90;;;3.20;;
17038;SDS011;8636;55.750;13.202;2023-05-13T18:02:50;4.95;;;2.80;;
17038;SDS011;8636;55.750;13.202;2023-05-13T18:05:26;2.60;;;2.40;;
17038;SDS011;8636;55.750;13.202;2023-05-13T18:07:54;5.15;;;2.60;;
17038;SDS011;8636;55.750;13.202;2023-05-13T18:10:22;3.92;;;2.40;;
17038;SDS011;8636;55.750;13.202;2023-05-13T18:12:58;3.72;;;2.50;;
17038;SDS011;8636;55.750;13.202;2023-05-13T18:15:26;3.10;;;2.80;;
17038;SDS011;8636;55.750;13.202;2023-05-13T18:18:00;3.53;;;2.80;;
17038;SDS011;8636;55.750;13.202;2023-05-13T18:20:30;3.50;;;2.80;;
17038;SDS011;8636;55.750;13.202;2023-05-13T18:23:05;3.92;;;2.63;;
17038;SDS011;8636;55.750;13.202;2023-05-13T18:25:33;3.92;;;2.63;;
17038;SDS011;8636;55.750;13.202;2023-05-13T18:28:20;3.83;;;2.72;;
17038;SDS011;8636;55.750;13.202;2023-05-13T18:30:48;5.82;;;2.63;;
17038;SDS011;8636;55.750;13.202;2023-05-13T18:33:22;3.70;;;2.53;;
17038;SDS011;8636;55.750;13.202;2023-05-13T18:35:52;3.80;;;2.60;;
17038;SDS011;8636;55.750;13.202;2023-05-13T18:38:20;5.10;;;2.70;;
17038;SDS011;8636;55.750;13.202;2023-05-13T18:41:01;4.05;;;3.08;;
17038;SDS011;8636;55.750;13.202;2023-05-13T18:43:30;5.13;;;2.58;;
17038;SDS011;8636;55.750;13.202;2023-05-13T18:46:07;3.67;;;2.42;;
17038;SDS011;8636;55.750;13.202;2023-05-13T18:48:35;4.30;;;2.90;;
17038;SDS011;8636;55.750;13.202;2023-05-13T18:51:12;2.53;;;2.28;;
17038;SDS011;8636;55.750;13.202;2023-05-13T18:53:41;3.00;;;2.53;;
17038;SDS011;8636;55.750;13.202;2023-05-13T18:56:18;5.22;;;2.92;;
17038;SDS011;8636;55.750;13.202;2023-05-13T18:58:46;5.13;;;2.72;;
17038;SDS011;8636;55.750;13.202;2023-05-13T19:01:14;3.22;;;2.88;;
17038;SDS011;8636;55.750;13.202;2023-05-13T19:03:49;3.67;;;2.45;;
17038;SDS011;8636;55.750;13.202;2023-05-13T19:06:19;3.80;;;2.70;;
17038;SDS011;8636;55.750;13.202;2023-05-13T19:08:53;4.60;;;2.70;;
17038;SDS011;8636;55.750;13.202;2023-05-13T19:11:21;3.13;;;2.90;;
17038;SDS011;8636;55.750;13.202;2023-05-13T19:13:55;4.85;;;3.42;;
17038;SDS011;8636;55.750;13.202;2023-05-13T19:16:23;3.38;;;2.78;;
17038;SDS011;8636;55.750;13.202;2023-05-13T19:18:59;3.95;;;2.78;;
17038;SDS011;8636;55.750;13.202;2023-05-13T19:21:28;9.13;;;3.10;;
17038;SDS011;8636;55.750;13.202;2023-05-13T19:23:56;3.45;;;2.78;;
17038;SDS011;8636;55.750;13.202;2023-05-13T19:26:31;3.75;;;2.80;;
17038;SDS011;8636;55.750;13.202;2023-05-13T19:28:58;4.72;;;2.63;;
17038;SDS011;8636;55.750;13.202;2023-05-13T19:31:32;2.88;;;2.60;;
17038;SDS011;8636;55.750;13.202;2023-05-13T19:34:00;5.22;;;2.80;;
17038;SDS011;8636;55.750;13.202;2023-05-13T19:36:37;2.83;;;2.50;;
17038;SDS011;8636;55.750;13.202;2023-05-13T19:39:14;4.00;;;3.05;;
17038;SDS011;8636;55.750;13.202;2023-05-13T19:41:55;3.47;;;2.88;;
17038;SDS011;8636;55.750;13.202;2023-05-13T19:44:27;4.40;;;2.78;;
17038;SDS011;8636;55.750;13.202;2023-05-13T19:47:03;4.72;;;2.78;;
17038;SDS011;8636;55.750;13.202;2023-05-13T19:49:32;3.22;;;2.90;;
17038;SDS011;8636;55.750;13.202;2023-05-13T19:52:16;6.97;;;3.42;;
17038;SDS011;8636;55.750;13.202;2023-05-13T19:54:48;5.75;;;2.55;;
17038;SDS011;8636;55.750;13.202;2023-05-13T19:57:23;4.40;;;2.90;;
17038;SDS011;8636;55.750;13.202;2023-05-13T19:59:55;4.70;;;3.10;;
17038;SDS011;8636;55.750;13.202;2023-05-13T20:02:32;6.07;;;3.10;;
17038;SDS011;8636;55.750;13.202;2023-05-13T20:05:00;4.20;;;3.17;;
17038;SDS011;8636;55.750;13.202;2023-05-13T20:07:31;4.97;;;2.85;;
17038;SDS011;8636;55.750;13.202;2023-05-13T20:10:06;6.45;;;2.90;;
17038;SDS011;8636;55.750;13.202;2023-05-13T20:12:38;5.93;;;3.30;;
17038;SDS011;8636;55.750;13.202;2023-05-13T20:15:12;5.07;;;3.20;;
17038;SDS011;8636;55.750;13.202;2023-05-13T20:17:43;3.25;;;2.55;;
17038;SDS011;8636;55.750;13.202;2023-05-13T20:20:21;3.22;;;2.88;;
17038;SDS011;8636;55.750;13.202;2023-05-13T20:22:50;6.15;;;3.05;;
17038;SDS011;8636;55.750;13.202;2023-05-13T20:25:29;4.03;;;2.60;;
17038;SDS011;8636;55.750;13.202;2023-05-13T20:27:59;6.78;;;3.25;;
17038;SDS011;8636;55.750;13.202;2023-05-13T20:30:35;4.13;;;2.88;;
17038;SDS011;8636;55.750;13.202;2023-05-13T20:33:06;5.00;;;3.13;;
17038;SDS011;8636;55.750;13.202;2023-05-13T20:35:34;3.15;;;2.88;;
17038;SDS011;8636;55.750;13.202;2023-05-13T20:38:11;5.95;;;2.80;;
17038;SDS011;8636;55.750;13.202;2023-05-13T20:40:45;3.25;;;2.63;;
17038;SDS011;8636;55.750;13.202;2023-05-13T20:43:20;4.40;;;3.13;;
17038;SDS011;8636;55.750;13.202;2023-05-13T20:45:48;5.77;;;2.90;;
17038;SDS011;8636;55.750;13.202;2023-05-13T20:48:22;6.38;;;2.90;;
17038;SDS011;8636;55.750;13.202;2023-05-13T20:50:56;4.17;;;2.63;;
17038;SDS011;8636;55.750;13.202;2023-05-13T20:53:33;5.88;;;3.17;;
17038;SDS011;8636;55.750;13.202;2023-05-13T20:56:01;3.63;;;2.90;;
17038;SDS011;8636;55.750;13.202;2023-05-13T20:58:30;3.15;;;2.90;;
17038;SDS011;8636;55.750;13.202;2023-05-13T21:01:04;4.13;;;2.70;;
17038;SDS011;8636;55.750;13.202;2023-05-13T21:03:32;6.47;;;3.08;;
17038;SDS011;8636;55.750;13.202;2023-05-13T21:06:06;4.97;;;3.00;;
17038;SDS011;8636;55.750;13.202;2023-05-13T21:08:36;4.10;;;3.00;;
17038;SDS011;8636;55.750;13.202;2023-05-13T21:11:11;5.45;;;3.28;;
17038;SDS011;8636;55.750;13.202;2023-05-13T21:13:39;5.10;;;3.03;;
17038;SDS011;8636;55.750;13.202;2023-05-13T21:16:13;4.50;;;3.00;;
17038;SDS011;8636;55.750;13.202;2023-05-13T21:18:41;5.47;;;3.43;;
17038;SDS011;8636;55.750;13.202;2023-05-13T21:21:09;5.40;;;3.57;;
17038;SDS011;8636;55.750;13.202;2023-05-13T21:23:46;5.90;;;3.30;;
17038;SDS011;8636;55.750;13.202;2023-05-13T21:26:13;6.28;;;3.33;;
17038;SDS011;8636;55.750;13.202;2023-05-13T21:28:48;5.27;;;3.40;;
17038;SDS011;8636;55.750;13.202;2023-05-13T21:31:16;6.80;;;3.38;;
17038;SDS011;8636;55.750;13.202;2023-05-13T21:33:50;5.70;;;3.15;;
17038;SDS011;8636;55.750;13.202;2023-05-13T21:36:18;6.63;;;3.47;;
17038;SDS011;8636;55.750;13.202;2023-05-13T21:38:55;4.97;;;3.40;;
17038;SDS011;8636;55.750;13.202;2023-05-13T21:41:36;5.93;;;3.57;;
17038;SDS011;8636;55.750;13.202;2023-05-13T21:44:12;5.33;;;3.60;;
17038;SDS011;8636;55.750;13.202;2023-05-13T21:46:39;6.53;;;3.40;;
17038;SDS011;8636;55.750;13.202;2023-05-13T21:49:07;6.20;;;3.43;;
17038;SDS011;8636;55.750;13.202;2023-05-13T21:51:41;3.53;;;3.20;;
17038;SDS011;8636;55.750;13.202;2023-05-13T21:54:10;4.47;;;3.57;;
17038;SDS011;8636;55.750;13.202;2023-05-13T21:56:45;8.77;;;3.47;;
17038;SDS011;8636;55.750;13.202;2023-05-13T21:59:13;4.57;;;3.37;;
17038;SDS011;8636;55.750;13.202;2023-05-13T22:01:48;7.90;;;3.60;;
17038;SDS011;8636;55.750;13.202;2023-05-13T22:04:16;6.03;;;3.43;;
17038;SDS011;8636;55.750;13.202;2023-05-13T22:06:52;3.87;;;3.40;;
17038;SDS011;8636;55.750;13.202;2023-05-13T22:09:21;6.40;;;3.30;;
17038;SDS011;8636;55.750;13.202;2023-05-13T22:11:49;6.73;;;3.17;;
17038;SDS011;8636;55.750;13.202;2023-05-13T22:14:23;5.43;;;4.07;;
17038;SDS011;8636;55.750;13.202;2023-05-13T22:16:51;4.23;;;3.60;;
17038;SDS011;8636;55.750;13.202;2023-05-13T22:19:35;5.03;;;3.73;;
17038;SDS011;8636;55.750;13.202;2023-05-13T22:22:03;7.53;;;3.63;;
17038;SDS011;8636;55.750;13.202;2023-05-13T22:24:39;8.63;;;3.83;;
17038;SDS011;8636;55.750;13.202;2023-05-13T22:27:07;6.37;;;3.70;;
17038;SDS011;8636;55.750;13.202;2023-05-13T22:29:41;5.60;;;3.80;;
17038;SDS011;8636;55.750;13.202;2023-05-13T22:32:09;6.17;;;3.87;;
17038;SDS011;8636;55.750;13.202;2023-05-13T22:34:37;5.63;;;3.77;;
17038;SDS011;8636;55.750;13.202;2023-05-13T22:37:11;6.13;;;3.50;;
17038;SDS011;8636;55.750;13.202;2023-05-13T22:39:41;6.50;;;3.57;;
17038;SDS011;8636;55.750;13.202;2023-05-13T22:42:15;5.43;;;3.70;;
17038;SDS011;8636;55.750;13.202;2023-05-13T22:44:50;6.60;;;3.73;;
17038;SDS011;8636;55.750;13.202;2023-05-13T22:47:24;6.43;;;4.17;;
17038;SDS011;8636;55.750;13.202;2023-05-13T22:49:52;4.40;;;3.43;;
17038;SDS011;8636;55.750;13.202;2023-05-13T22:52:26;5.73;;;3.60;;
17038;SDS011;8636;55.750;13.202;2023-05-13T22:54:56;6.53;;;4.07;;
17038;SDS011;8636;55.750;13.202;2023-05-13T22:57:25;7.10;;;4.20;;
17038;SDS011;8636;55.750;13.202;2023-05-13T22:59:59;5.00;;;3.40;;
17038;SDS011;8636;55.750;13.202;2023-05-13T23:02:28;4.53;;;3.83;;
17038;SDS011;8636;55.750;13.202;2023-05-13T23:05:02;6.77;;;3.87;;
17038;SDS011;8636;55.750;13.202;2023-05-13T23:07:31;7.53;;;4.00;;
17038;SDS011;8636;55.750;13.202;2023-05-13T23:10:07;8.43;;;4.73;;
17038;SDS011;8636;55.750;13.202;2023-05-13T23:12:36;5.67;;;3.90;;
17038;SDS011;8636;55.750;13.202;2023-05-13T23:15:11;5.10;;;4.10;;
17038;SDS011;8636;55.750;13.202;2023-05-13T23:17:41;4.57;;;3.90;;
17038;SDS011;8636;55.750;13.202;2023-05-13T23:20:09;4.20;;;3.73;;
17038;SDS011;8636;55.750;13.202;2023-05-13T23:22:43;7.60;;;4.00;;
17038;SDS011;8636;55.750;13.202;2023-05-13T23:25:13;4.63;;;3.50;;
17038;SDS011;8636;55.750;13.202;2023-05-13T23:27:49;6.23;;;3.83;;
17038;SDS011;8636;55.750;13.202;2023-05-13T23:30:17;5.90;;;4.10;;
17038;SDS011;8636;55.750;13.202;2023-05-13T23:32:51;4.33;;;3.70;;
17038;SDS011;8636;55.750;13.202;2023-05-13T23:35:19;6.57;;;4.17;;
17038;SDS011;8636;55.750;13.202;2023-05-13T23:37:54;5.07;;;4.20;;
17038;SDS011;8636;55.750;13.202;2023-05-13T23:40:30;7.93;;;4.37;;
17038;SDS011;8636;55.750;13.202;2023-05-13T23:43:03;6.70;;;4.07;;
17038;SDS011;8636;55.750;13.202;2023-05-13T23:45:31;6.37;;;4.27;;
17038;SDS011;8636;55.750;13.202;2023-05-13T23:47:59;6.10;;;4.33;;
17038;SDS011;8636;55.750;13.202;2023-05-13T23:50:34;6.90;;;4.27;;
17038;SDS011;8636;55.750;13.202;2023-05-13T23:53:04;5.63;;;4.47;;
17038;SDS011;8636;55.750;13.202;2023-05-13T23:55:40;7.33;;;4.53;;
17038;SDS011;8636;55.750;13.202;2023-05-13T23:58:07;6.07;;;4.37;;
